Arrowhead Farms, California
Current Conditions -  °F | °C
As of 8:50 AM on Monday 22 Dec 2014 (Local Time) from KSBD Reporting Station
Clear Clear  
Wind Chill: 55°   Ceiling: Unl
Heat Index: 55°   Visibility: 10mi
Dew Point: 43°   Wind: 0mph
Humidity: 63%   Direction: NA
Pressure: 30.07"   Gusts: NA
Location:  34.2759°N, 117.303°W
Report Text: KSBD 221650Z 00000KT 10SM SKC 13/06 A3007
Loading
Personal Weather Stations






























Interactive Weather Map New forecast layout! Learn more

10-Day Weather Forecast

Advertisements
Track Severe Weather on mobile